Time;durP1;ratioP1;P1;durP2;ratioP2;P2;SDS_P1;SDS_P2;PMS_P1;PMS_P2;Temp;Humidity;BMP_temperature;BMP_pressure;BME280_temperature;BME280_humidity;BME280_pressure;Samples;Min_cycle;Max_cycle;Signal;HPM_P1;HPM_P2
2022/01/15 00:01:46;;;;;;;18.67;10.23;;;6.70;99.90;;;;;;5053904;28;20072;-67
2022/01/15 00:04:12;;;;;;;20.52;10.10;;;6.60;99.90;;;;;;5056543;28;20036;-67
2022/01/15 00:06:40;;;;;;;20.58;10.38;;;6.60;99.90;;;;;;5060624;28;20534;-67
2022/01/15 00:09:06;;;;;;;21.13;10.80;;;6.70;99.90;;;;;;5017254;28;1092200;-67
2022/01/15 00:11:34;;;;;;;19.52;11.68;;;6.60;99.90;;;;;;5062390;28;20037;-67
2022/01/15 00:14:15;;;;;;;24.63;12.20;;;6.60;99.90;;;;;;5065920;28;20037;-67
2022/01/15 00:16:56;;;;;;;34.25;12.75;;;6.60;99.90;;;;;;5054614;28;20067;-67
2022/01/15 00:19:34;;;;;;;24.88;11.93;;;6.60;99.90;;;;;;5061490;28;20044;-67
2022/01/15 00:21:59;;;;;;;25.45;12.00;;;6.60;99.90;;;;;;5062705;28;20332;-67
2022/01/15 00:24:25;;;;;;;22.27;11.68;;;6.50;99.90;;;;;;5061570;28;20063;-67
2022/01/15 00:26:51;;;;;;;24.45;12.25;;;6.60;99.90;;;;;;5060812;28;20497;-67
2022/01/15 00:29:17;;;;;;;44.58;14.43;;;6.50;99.90;;;;;;5061105;28;20082;-67
2022/01/15 00:31:42;;;;;;;32.63;13.13;;;6.60;99.90;;;;;;5062907;28;20041;-67
2022/01/15 00:34:08;;;;;;;22.95;11.50;;;6.60;99.90;;;;;;5057727;28;21391;-67
2022/01/15 00:36:34;;;;;;;20.77;11.38;;;6.60;99.90;;;;;;5071011;28;20036;-67
2022/01/15 00:38:59;;;;;;;19.92;11.57;;;6.60;99.90;;;;;;5065304;28;20048;-67
2022/01/15 00:41:27;;;;;;;22.02;11.55;;;6.60;99.90;;;;;;5043501;28;20033;-67
2022/01/15 00:43:52;;;;;;;20.90;11.68;;;6.60;99.90;;;;;;5067955;28;20060;-67
2022/01/15 00:46:18;;;;;;;19.90;11.18;;;6.60;99.90;;;;;;5064698;28;20974;-67
2022/01/15 00:48:44;;;;;;;22.10;11.77;;;6.60;99.90;;;;;;5062918;28;20163;-67
2022/01/15 00:51:10;;;;;;;31.02;13.10;;;6.60;99.90;;;;;;5066125;28;20118;-67
2022/01/15 00:53:35;;;;;;;33.72;12.73;;;6.50;99.90;;;;;;5064317;28;20028;-67
2022/01/15 00:56:01;;;;;;;23.52;12.35;;;6.60;99.90;;;;;;5062988;28;20480;-67
2022/01/15 00:58:27;;;;;;;19.70;11.38;;;6.50;99.90;;;;;;5066883;28;20135;-67
2022/01/15 01:00:52;;;;;;;24.20;12.13;;;6.60;99.90;;;;;;5065858;28;20199;-67
2022/01/15 01:03:18;;;;;;;25.75;12.80;;;6.60;99.90;;;;;;5063639;28;20036;-67
2022/01/15 01:05:43;;;;;;;31.27;12.27;;;6.60;99.90;;;;;;5067293;28;20032;-67
2022/01/15 01:08:09;;;;;;;28.13;12.50;;;6.60;99.90;;;;;;5063639;28;20043;-67
2022/01/15 01:10:54;;;;;;;34.35;13.00;;;6.60;99.90;;;;;;5062285;28;20413;-67
2022/01/15 01:23:42;;;;;;;29.58;11.50;;;6.50;99.90;;;;;;5066409;28;20036;-67
2022/01/15 01:26:24;;;;;;;25.10;11.45;;;6.50;99.90;;;;;;5064347;28;20698;-67
2022/01/15 01:29:00;;;;;;;19.88;10.77;;;6.50;99.90;;;;;;5058877;28;20967;-67
2022/01/15 01:31:35;;;;;;;16.85;10.18;;;6.50;99.90;;;;;;5063133;28;20065;-67
2022/01/15 01:34:07;;;;;;;18.38;9.55;;;6.50;99.90;;;;;;5064458;28;20504;-67
2022/01/15 01:36:56;;;;;;;27.75;11.30;;;6.50;99.90;;;;;;5061402;28;20116;-67
2022/01/15 01:39:25;;;;;;;25.08;10.85;;;6.50;99.90;;;;;;5062523;28;20047;-67
2022/01/15 01:42:05;;;;;;;18.15;10.00;;;6.50;99.90;;;;;;5067159;28;20044;-67
2022/01/15 01:44:31;;;;;;;20.15;10.25;;;6.50;99.90;;;;;;5065141;28;20040;-67
2022/01/15 01:47:05;;;;;;;21.65;10.45;;;6.50;99.90;;;;;;5059413;28;20070;-67
2022/01/15 01:49:31;;;;;;;20.50;10.02;;;6.50;99.90;;;;;;5064176;28;20611;-67
2022/01/15 01:51:57;;;;;;;23.90;10.85;;;6.50;99.90;;;;;;5064600;28;20127;-67
2022/01/15 01:54:22;;;;;;;23.60;9.98;;;6.50;99.90;;;;;;5059689;28;20033;-67
2022/01/15 01:56:50;;;;;;;20.10;9.55;;;6.50;99.90;;;;;;5064561;28;20040;-67
2022/01/15 01:59:17;;;;;;;20.30;9.90;;;6.50;99.90;;;;;;5065076;28;20040;-67
2022/01/15 02:01:43;;;;;;;20.50;9.45;;;6.50;99.90;;;;;;5057750;28;20072;-66
2022/01/15 02:04:09;;;;;;;25.55;10.35;;;6.50;99.90;;;;;;5057763;28;20033;-66
2022/01/15 02:06:36;;;;;;;18.45;8.25;;;6.50;99.90;;;;;;5061570;28;20035;-67
2022/01/15 02:09:05;;;;;;;14.80;8.35;;;6.50;99.90;;;;;;5058414;28;20504;-66
2022/01/15 02:11:31;;;;;;;19.05;9.38;;;6.50;99.90;;;;;;5076185;28;20439;-66
2022/01/15 02:13:56;;;;;;;17.52;9.25;;;6.50;99.90;;;;;;5067244;28;20124;-66
2022/01/15 02:16:22;;;;;;;17.65;9.00;;;6.50;99.90;;;;;;5060863;28;20067;-66
2022/01/15 02:18:55;;;;;;;17.80;9.57;;;6.40;99.90;;;;;;5059425;28;20534;-67
2022/01/15 02:24:06;;;;;;;17.85;9.10;;;6.50;99.90;;;;;;5063792;28;20124;-66
2022/01/15 02:26:34;;;;;;;15.85;8.95;;;6.40;99.90;;;;;;5061312;28;20595;-66
2022/01/15 02:29:01;;;;;;;21.52;10.25;;;6.50;99.90;;;;;;5063724;28;20048;-66
2022/01/15 02:31:30;;;;;;;16.85;8.65;;;6.50;99.90;;;;;;5062001;28;20052;-66
2022/01/15 02:33:58;;;;;;;18.40;9.77;;;6.50;99.90;;;;;;5058491;28;20079;-66
2022/01/15 02:36:30;;;;;;;16.95;8.80;;;6.40;99.90;;;;;;5062516;28;20045;-66
2022/01/15 02:38:56;;;;;;;17.33;8.52;;;6.40;99.90;;;;;;5065920;28;20425;-67
2022/01/15 02:41:26;;;;;;;18.92;9.43;;;6.50;99.90;;;;;;5062862;28;20133;-66
2022/01/15 02:43:52;;;;;;;16.15;9.15;;;6.40;99.90;;;;;;5062233;28;20048;-66
2022/01/15 02:46:33;;;;;;;19.95;9.77;;;6.50;99.90;;;;;;5063238;28;20032;-66
2022/01/15 02:49:02;;;;;;;18.02;9.10;;;6.40;99.90;;;;;;5063813;28;20119;-67
2022/01/15 02:51:31;;;;;;;20.58;9.70;;;6.40;99.90;;;;;;5061913;28;20640;-66
2022/01/15 02:53:57;;;;;;;17.83;9.07;;;6.40;99.90;;;;;;5064441;28;20051;-66
2022/01/15 02:56:41;;;;;;;19.92;9.63;;;6.50;99.90;;;;;;5067006;28;20070;-66
2022/01/15 02:59:09;;;;;;;18.08;9.23;;;6.50;99.90;;;;;;5059940;28;20119;-66
2022/01/15 03:01:36;;;;;;;16.90;8.98;;;6.40;99.90;;;;;;5058099;28;20662;-66
2022/01/15 03:04:02;;;;;;;19.23;9.02;;;6.50;99.90;;;;;;5052278;28;20132;-67
2022/01/15 03:06:28;;;;;;;15.10;8.65;;;6.40;99.90;;;;;;5058432;28;20044;-66
2022/01/15 03:08:54;;;;;;;24.65;9.38;;;6.40;99.90;;;;;;5056554;28;20504;-66
2022/01/15 03:11:21;;;;;;;18.33;8.48;;;6.40;99.90;;;;;;5065156;28;20504;-66
2022/01/15 03:13:47;;;;;;;18.40;8.88;;;6.40;99.90;;;;;;5059779;28;20043;-66
2022/01/15 03:16:16;;;;;;;18.67;8.45;;;6.40;99.90;;;;;;5057810;28;20089;-66
2022/01/15 03:18:43;;;;;;;16.25;8.10;;;6.40;99.90;;;;;;5070502;28;20131;-66
2022/01/15 03:21:09;;;;;;;14.05;7.45;;;6.40;99.90;;;;;;5062795;28;20078;-66
2022/01/15 03:23:35;;;;;;;19.30;8.40;;;6.40;99.90;;;;;;5061253;28;20037;-66
2022/01/15 03:26:00;;;;;;;15.07;7.88;;;6.40;99.90;;;;;;5066071;28;20032;-66
2022/01/15 03:28:26;;;;;;;17.17;8.40;;;6.40;99.90;;;;;;5060247;28;20044;-66
2022/01/15 03:30:52;;;;;;;12.27;7.25;;;6.40;99.90;;;;;;5055212;28;20065;-66
2022/01/15 03:33:18;;;;;;;15.93;8.30;;;6.40;99.90;;;;;;5054297;28;20045;-66
2022/01/15 03:35:45;;;;;;;20.05;8.77;;;6.40;99.90;;;;;;5060704;28;20123;-66
2022/01/15 03:38:10;;;;;;;14.80;8.35;;;6.40;99.90;;;;;;5054833;28;20362;-66
2022/01/15 03:40:36;;;;;;;22.67;8.98;;;6.40;99.90;;;;;;5058503;28;20037;-66
2022/01/15 03:43:04;;;;;;;19.33;8.45;;;6.40;99.90;;;;;;5063416;28;20086;-66
2022/01/15 03:45:30;;;;;;;12.70;7.15;;;6.40;99.90;;;;;;5052948;28;20517;-66
2022/01/15 03:47:57;;;;;;;15.30;7.82;;;6.40;99.90;;;;;;5055277;28;20056;-66
2022/01/15 03:50:23;;;;;;;18.73;8.80;;;6.40;99.90;;;;;;5063564;28;20071;-66
2022/01/15 03:52:49;;;;;;;16.38;8.15;;;6.40;99.90;;;;;;5055479;28;20036;-66
2022/01/15 03:55:15;;;;;;;19.45;8.23;;;6.30;99.90;;;;;;5048601;28;20495;-66
2022/01/15 03:57:41;;;;;;;14.25;7.72;;;6.30;99.90;;;;;;5059104;28;20370;-66
2022/01/15 04:00:27;;;;;;;16.75;7.93;;;6.30;99.90;;;;;;5058819;28;20153;-66
2022/01/15 04:02:54;;;;;;;17.90;8.25;;;6.30;99.90;;;;;;5056336;28;20377;-67
2022/01/15 04:05:21;;;;;;;17.95;7.53;;;6.30;99.90;;;;;;5051459;28;20170;-66
2022/01/15 04:07:47;;;;;;;17.38;7.60;;;6.30;99.90;;;;;;5056951;28;20041;-66
2022/01/15 04:10:15;;;;;;;22.50;9.13;;;6.30;99.90;;;;;;5056815;28;20044;-66
2022/01/15 04:12:41;;;;;;;13.57;7.70;;;6.30;99.90;;;;;;5062721;28;20095;-66
2022/01/15 04:15:08;;;;;;;15.20;7.55;;;6.30;99.90;;;;;;5056937;28;20120;-66
2022/01/15 04:17:34;;;;;;;23.60;8.93;;;6.30;99.90;;;;;;5064461;28;20105;-66
2022/01/15 04:20:00;;;;;;;15.23;8.05;;;6.30;99.90;;;;;;5065570;28;20032;-66
2022/01/15 04:22:26;;;;;;;15.40;8.10;;;6.30;99.90;;;;;;5057507;28;20417;-66
2022/01/15 04:24:52;;;;;;;15.73;7.60;;;6.30;99.90;;;;;;5059070;28;20048;-66
2022/01/15 04:27:22;;;;;;;12.13;7.60;;;6.30;99.90;;;;;;5060833;28;20059;-66
2022/01/15 04:29:48;;;;;;;19.15;8.57;;;6.30;99.90;;;;;;5062900;28;20033;-66
2022/01/15 04:32:14;;;;;;;15.82;8.20;;;6.30;99.90;;;;;;5057678;28;20145;-66
2022/01/15 04:34:40;;;;;;;17.45;8.50;;;6.30;99.90;;;;;;5063577;28;20115;-66
2022/01/15 04:37:14;;;;;;;16.00;7.68;;;6.30;99.90;;;;;;5064816;28;20341;-66
2022/01/15 04:39:42;;;;;;;18.35;8.43;;;6.30;99.90;;;;;;5060441;28;20069;-66
2022/01/15 04:42:08;;;;;;;14.88;7.70;;;6.30;99.90;;;;;;5060448;28;20033;-66
2022/01/15 04:44:34;;;;;;;16.92;7.40;;;6.20;99.90;;;;;;5057775;28;20170;-66
2022/01/15 04:47:00;;;;;;;14.85;7.93;;;6.20;99.90;;;;;;5061335;28;20538;-66
2022/01/15 04:49:26;;;;;;;18.85;8.05;;;6.30;99.90;;;;;;5059850;28;20106;-66
2022/01/15 04:51:51;;;;;;;16.63;7.97;;;6.20;99.90;;;;;;5059865;28;20045;-66
2022/01/15 04:54:17;;;;;;;17.00;7.50;;;6.20;99.90;;;;;;5063225;28;20076;-66
2022/01/15 04:56:43;;;;;;;22.90;8.40;;;6.20;99.90;;;;;;5062314;28;20052;-66
2022/01/15 04:59:10;;;;;;;27.17;9.35;;;6.20;99.90;;;;;;5059412;28;20123;-66
2022/01/15 05:01:37;;;;;;;16.08;7.97;;;6.30;99.90;;;;;;5060681;28;20033;-66
2022/01/15 05:04:03;;;;;;;22.50;8.55;;;6.20;99.90;;;;;;5057674;28;20113;-66
2022/01/15 05:06:28;;;;;;;17.70;7.97;;;6.20;99.90;;;;;;5059569;28;20041;-66
2022/01/15 05:09:03;;;;;;;23.55;8.93;;;6.20;99.90;;;;;;5062512;28;20051;-66
2022/01/15 05:11:42;;;;;;;16.38;8.27;;;6.20;99.90;;;;;;5056007;28;20068;-66
2022/01/15 05:14:08;;;;;;;14.35;7.70;;;6.20;99.90;;;;;;5057358;28;20037;-66
2022/01/15 05:16:34;;;;;;;19.70;7.72;;;6.20;99.90;;;;;;5061368;28;20043;-66
2022/01/15 05:18:59;;;;;;;18.50;7.95;;;6.20;99.90;;;;;;5057653;28;20025;-66
2022/01/15 05:21:25;;;;;;;19.15;7.93;;;6.20;99.90;;;;;;5060056;28;20043;-66
2022/01/15 05:23:51;;;;;;;18.17;7.60;;;6.20;99.90;;;;;;5060311;28;20175;-66
2022/01/15 05:26:16;;;;;;;16.42;7.63;;;6.20;99.90;;;;;;5062508;28;20166;-66
2022/01/15 05:28:42;;;;;;;14.32;7.78;;;6.10;99.90;;;;;;5054645;28;20460;-66
2022/01/15 05:31:08;;;;;;;18.08;7.72;;;6.20;99.90;;;;;;5063372;28;20381;-66
2022/01/15 05:33:33;;;;;;;13.45;6.13;;;6.20;99.90;;;;;;5055249;28;21119;-66
2022/01/15 05:36:00;;;;;;;11.60;6.65;;;6.10;99.90;;;;;;5061842;28;20043;-66
2022/01/15 05:38:26;;;;;;;12.23;6.72;;;6.10;99.90;;;;;;5061378;28;20461;-66
2022/01/15 05:40:52;;;;;;;15.35;7.28;;;6.10;99.90;;;;;;5060283;28;20068;-66
2022/01/15 05:43:17;;;;;;;12.88;7.25;;;6.10;99.90;;;;;;5056576;28;20106;-66
2022/01/15 05:45:43;;;;;;;11.82;6.65;;;6.10;99.90;;;;;;5058115;28;20048;-66
2022/01/15 05:48:09;;;;;;;14.32;6.53;;;6.10;99.90;;;;;;5063790;28;20128;-66
2022/01/15 05:50:34;;;;;;;14.45;6.63;;;6.10;99.90;;;;;;5057794;28;20477;-66
2022/01/15 05:53:00;;;;;;;11.13;5.90;;;6.00;99.90;;;;;;5061135;28;20028;-66
2022/01/15 05:55:26;;;;;;;11.13;6.70;;;6.10;99.90;;;;;;5057785;28;20036;-66
2022/01/15 05:57:52;;;;;;;12.65;6.68;;;6.10;99.90;;;;;;5058010;28;20053;-66
2022/01/15 06:00:17;;;;;;;12.35;6.47;;;6.10;99.90;;;;;;5057273;28;20063;-66
2022/01/15 06:02:43;;;;;;;13.02;6.45;;;6.10;99.90;;;;;;5058266;28;20124;-66
2022/01/15 06:05:09;;;;;;;15.88;6.97;;;6.10;99.90;;;;;;5044106;28;20087;-66
2022/01/15 06:07:35;;;;;;;13.35;6.22;;;6.10;99.90;;;;;;5045056;28;20044;-66
2022/01/15 06:10:01;;;;;;;15.40;6.90;;;6.00;99.90;;;;;;5058875;28;20136;-66
2022/01/15 06:12:32;;;;;;;11.48;5.85;;;6.00;99.90;;;;;;5058482;28;20123;-66
2022/01/15 06:14:59;;;;;;;11.63;6.30;;;6.00;99.90;;;;;;5051740;28;20047;-66
2022/01/15 06:17:25;;;;;;;14.38;6.55;;;6.10;99.90;;;;;;5065490;28;20025;-66
2022/01/15 06:19:51;;;;;;;13.25;6.40;;;6.00;99.90;;;;;;5061353;28;20029;-66
2022/01/15 06:22:17;;;;;;;11.13;5.95;;;6.00;99.90;;;;;;5055233;28;20041;-66
2022/01/15 06:24:42;;;;;;;13.93;6.90;;;6.00;99.90;;;;;;5058794;28;20044;-66
2022/01/15 06:27:11;;;;;;;9.07;5.38;;;5.90;99.90;;;;;;5056842;28;20117;-66
2022/01/15 06:29:38;;;;;;;9.80;5.70;;;5.90;99.90;;;;;;5070869;28;20082;-66
2022/01/15 06:32:04;;;;;;;10.88;6.20;;;6.00;99.90;;;;;;5055406;28;20049;-66
2022/01/15 06:34:30;;;;;;;13.95;6.03;;;5.90;99.90;;;;;;5059784;28;20136;-66
2022/01/15 06:36:55;;;;;;;11.00;5.97;;;5.90;99.90;;;;;;5051815;28;20161;-66
2022/01/15 06:39:21;;;;;;;12.55;6.47;;;5.90;99.90;;;;;;5059776;28;20564;-66
2022/01/15 06:41:47;;;;;;;8.40;5.28;;;5.90;99.90;;;;;;5053209;28;20029;-66
2022/01/15 06:44:12;;;;;;;9.57;5.20;;;5.90;99.90;;;;;;5054885;28;20257;-66
2022/01/15 06:46:38;;;;;;;9.52;5.13;;;5.90;99.90;;;;;;5058179;28;20083;-66
2022/01/15 06:49:04;;;;;;;7.80;5.43;;;5.90;99.90;;;;;;5055745;28;20044;-66
2022/01/15 06:51:29;;;;;;;7.80;5.68;;;5.80;99.90;;;;;;5056214;28;20051;-66
2022/01/15 06:53:55;;;;;;;10.07;5.72;;;5.80;99.90;;;;;;5061086;28;20051;-66
2022/01/15 06:56:21;;;;;;;7.82;5.05;;;5.80;99.90;;;;;;5056758;28;20078;-66
2022/01/15 06:58:47;;;;;;;7.03;5.30;;;5.80;99.90;;;;;;5055810;28;20071;-66
2022/01/15 07:01:12;;;;;;;8.40;5.50;;;5.80;99.90;;;;;;5055496;28;20036;-66
2022/01/15 07:03:38;;;;;;;9.93;6.40;;;5.70;99.90;;;;;;5061596;28;20048;-66
2022/01/15 07:06:04;;;;;;;6.25;4.90;;;5.80;99.90;;;;;;5053627;28;20361;-66
2022/01/15 07:08:29;;;;;;;7.72;4.85;;;5.70;99.90;;;;;;5060324;28;20037;-66
2022/01/15 07:10:55;;;;;;;6.82;5.20;;;5.70;99.90;;;;;;5056655;28;20488;-66
2022/01/15 07:13:21;;;;;;;7.22;5.32;;;5.60;99.90;;;;;;5054442;28;20060;-66
2022/01/15 07:15:49;;;;;;;8.85;5.57;;;5.60;99.90;;;;;;5057917;28;20037;-66
2022/01/15 07:18:16;;;;;;;7.10;4.95;;;5.70;99.90;;;;;;5056273;28;20116;-66
2022/01/15 07:20:43;;;;;;;7.53;5.22;;;5.60;99.90;;;;;;5056836;28;20464;-66
2022/01/15 07:23:09;;;;;;;6.50;5.20;;;5.60;99.90;;;;;;5057189;28;20075;-66
2022/01/15 07:25:35;;;;;;;9.32;5.88;;;5.60;99.90;;;;;;5059505;28;20044;-66
2022/01/15 07:28:00;;;;;;;7.38;4.88;;;5.50;99.90;;;;;;5057160;28;20036;-66
2022/01/15 07:30:26;;;;;;;6.35;4.70;;;5.50;99.90;;;;;;5060486;28;20044;-66
2022/01/15 07:32:52;;;;;;;9.35;5.45;;;5.50;99.90;;;;;;5059296;28;20053;-66
2022/01/15 07:35:19;;;;;;;9.65;5.93;;;5.50;99.90;;;;;;5059398;28;20128;-66
2022/01/15 07:37:45;;;;;;;9.80;5.82;;;5.50;99.90;;;;;;5052010;28;20531;-66
2022/01/15 07:40:11;;;;;;;9.02;6.07;;;5.50;99.90;;;;;;5060326;28;20037;-66
2022/01/15 07:42:38;;;;;;;10.23;6.07;;;5.50;99.90;;;;;;5067177;28;20048;-66
2022/01/15 07:45:07;;;;;;;10.00;6.32;;;5.50;99.90;;;;;;5059638;28;20043;-66
2022/01/15 07:47:32;;;;;;;12.30;6.88;;;5.50;99.90;;;;;;5062815;28;20040;-66
2022/01/15 07:49:58;;;;;;;10.55;6.70;;;5.50;99.90;;;;;;5062552;28;20763;-66
2022/01/15 07:52:25;;;;;;;11.43;7.43;;;5.50;99.90;;;;;;5058345;28;20057;-66
2022/01/15 07:54:51;;;;;;;10.98;6.53;;;5.50;99.90;;;;;;5061651;28;20044;-66
2022/01/15 07:57:16;;;;;;;11.13;7.40;;;5.50;99.90;;;;;;5054941;28;20462;-66
2022/01/15 07:59:42;;;;;;;9.73;6.75;;;5.50;99.90;;;;;;5061097;28;20037;-66
2022/01/15 08:02:08;;;;;;;10.98;7.47;;;5.50;99.90;;;;;;5061668;28;20029;-66
2022/01/15 08:04:34;;;;;;;10.10;6.82;;;5.50;99.90;;;;;;5064330;28;20032;-66
2022/01/15 08:06:59;;;;;;;11.05;6.95;;;5.50;99.90;;;;;;5065822;28;20040;-66
2022/01/15 08:09:25;;;;;;;12.63;7.53;;;5.50;99.90;;;;;;5065471;28;20483;-66
2022/01/15 08:11:51;;;;;;;10.45;7.03;;;5.50;99.90;;;;;;5060578;28;20126;-66
2022/01/15 08:14:16;;;;;;;12.52;8.25;;;5.50;99.90;;;;;;5058090;28;20048;-66
2022/01/15 08:16:42;;;;;;;13.05;8.10;;;5.50;99.90;;;;;;5058471;28;20037;-66
2022/01/15 08:19:08;;;;;;;12.18;8.13;;;5.50;99.90;;;;;;5059781;28;20481;-66
2022/01/15 08:21:34;;;;;;;11.43;6.50;;;5.50;99.90;;;;;;5061149;28;20087;-66
2022/01/15 08:23:59;;;;;;;8.77;6.43;;;5.50;99.90;;;;;;5058677;28;20048;-66
2022/01/15 08:26:25;;;;;;;10.13;6.93;;;5.50;99.90;;;;;;5058619;28;20040;-66
2022/01/15 08:28:51;;;;;;;9.88;7.13;;;5.50;99.90;;;;;;5064349;28;20052;-66
2022/01/15 08:31:17;;;;;;;10.57;7.22;;;5.50;99.90;;;;;;5058398;28;20044;-66
2022/01/15 08:33:42;;;;;;;10.90;7.35;;;5.40;99.90;;;;;;5068183;28;20039;-66
2022/01/15 08:36:08;;;;;;;14.07;8.60;;;5.50;99.90;;;;;;5063130;28;20115;-66
2022/01/15 08:38:34;;;;;;;12.45;8.02;;;5.50;99.90;;;;;;5060025;28;20044;-66
2022/01/15 08:40:59;;;;;;;12.73;7.88;;;5.50;99.90;;;;;;5068887;28;20029;-66
2022/01/15 08:43:25;;;;;;;14.43;9.55;;;5.50;99.90;;;;;;5063320;28;20036;-66
2022/01/15 08:45:51;;;;;;;16.63;9.75;;;5.40;99.90;;;;;;5057415;28;20040;-66
2022/01/15 08:48:19;;;;;;;14.68;9.95;;;5.40;99.90;;;;;;5068572;28;20039;-66
2022/01/15 08:50:47;;;;;;;16.00;10.13;;;5.40;99.90;;;;;;5062985;28;20043;-66
2022/01/15 08:53:13;;;;;;;17.60;10.55;;;5.40;99.90;;;;;;5056193;28;20040;-66
2022/01/15 08:55:41;;;;;;;15.82;10.43;;;5.40;99.90;;;;;;5057673;28;20473;-66
2022/01/15 08:58:06;;;;;;;17.02;10.98;;;5.40;99.90;;;;;;5058399;28;20115;-66
2022/01/15 09:00:33;;;;;;;18.58;11.57;;;5.40;99.90;;;;;;5059617;28;20124;-66
2022/01/15 09:03:02;;;;;;;18.17;11.50;;;5.40;99.90;;;;;;5064545;28;20065;-66
2022/01/15 09:05:30;;;;;;;18.42;11.35;;;5.40;99.90;;;;;;5056966;28;20044;-66
2022/01/15 09:07:56;;;;;;;19.67;10.95;;;5.40;99.90;;;;;;5062204;28;20447;-66
2022/01/15 09:10:22;;;;;;;21.40;11.82;;;5.40;99.90;;;;;;5058123;28;20128;-66
2022/01/15 09:12:48;;;;;;;17.38;10.70;;;5.40;99.90;;;;;;5058306;28;20069;-66
2022/01/15 09:15:14;;;;;;;21.52;12.07;;;5.40;99.90;;;;;;5060681;28;20088;-66
2022/01/15 09:17:41;;;;;;;19.00;11.18;;;5.30;99.90;;;;;;5059506;28;20102;-66
2022/01/15 09:20:08;;;;;;;17.58;11.23;;;5.40;99.90;;;;;;5057612;28;20052;-67
2022/01/15 09:22:33;;;;;;;20.42;12.38;;;5.40;99.90;;;;;;5056169;28;20033;-66
2022/01/15 09:25:00;;;;;;;18.70;12.82;;;5.40;99.90;;;;;;5063243;28;20437;-66
2022/01/15 09:30:12;;;;;;;25.45;13.88;;;5.30;99.90;;;;;;5057882;28;20099;-66
2022/01/15 09:32:39;;;;;;;23.80;14.05;;;5.30;99.90;;;;;;5065777;28;20072;-66
2022/01/15 09:35:05;;;;;;;24.20;13.65;;;5.30;99.90;;;;;;5058681;28;20079;-66
2022/01/15 09:37:31;;;;;;;20.35;12.45;;;5.30;99.90;;;;;;5059118;28;20451;-66
2022/01/15 09:40:00;;;;;;;21.55;13.98;;;5.30;99.90;;;;;;5048266;28;20106;-66
2022/01/15 09:42:26;;;;;;;24.35;13.43;;;5.30;99.90;;;;;;5060533;28;20032;-66
2022/01/15 09:44:54;;;;;;;26.30;14.77;;;5.30;99.90;;;;;;5064656;28;20120;-66
2022/01/15 09:47:21;;;;;;;21.83;13.57;;;5.30;99.90;;;;;;5053176;28;20052;-67
2022/01/15 09:49:48;;;;;;;21.63;13.55;;;5.30;99.90;;;;;;5057815;28;20049;-66
2022/01/15 09:52:15;;;;;;;21.08;12.43;;;5.30;99.90;;;;;;5056803;28;20057;-66
2022/01/15 09:54:41;;;;;;;20.15;12.40;;;5.30;99.90;;;;;;5064250;28;20033;-66
2022/01/15 09:57:07;;;;;;;21.10;12.88;;;5.30;99.90;;;;;;5059040;28;20040;-66
2022/01/15 09:59:33;;;;;;;21.15;13.82;;;5.30;99.90;;;;;;5059621;28;20119;-66
2022/01/15 10:02:02;;;;;;;22.15;14.45;;;5.30;99.90;;;;;;5061344;28;20045;-66
2022/01/15 10:04:32;;;;;;;24.60;14.85;;;5.30;99.90;;;;;;5056621;28;20028;-66
2022/01/15 10:07:22;;;;;;;23.42;13.98;;;5.30;99.90;;;;;;5059594;28;20118;-66
2022/01/15 10:09:50;;;;;;;26.60;14.82;;;5.30;99.90;;;;;;5059339;28;20041;-66
2022/01/15 10:12:28;;;;;;;29.77;16.33;;;5.30;99.90;;;;;;5059618;28;20052;-66
2022/01/15 10:14:59;;;;;;;28.48;16.65;;;5.30;99.90;;;;;;5059783;28;20068;-66
2022/01/15 10:17:26;;;;;;;28.33;15.25;;;5.30;99.90;;;;;;5057603;28;20441;-66
2022/01/15 10:19:53;;;;;;;24.10;14.32;;;5.30;99.90;;;;;;5057951;28;20463;-66
2022/01/15 10:22:23;;;;;;;26.60;15.13;;;5.30;99.90;;;;;;5058584;28;20064;-66
2022/01/15 10:25:14;;;;;;;23.20;14.25;;;5.30;99.90;;;;;;5058103;28;20366;-66
2022/01/15 10:27:45;;;;;;;23.85;14.25;;;5.40;99.90;;;;;;5058061;28;20045;-66
2022/01/15 10:30:17;;;;;;;20.20;12.43;;;5.30;99.90;;;;;;5063879;28;20110;-66
2022/01/15 10:32:58;;;;;;;19.70;12.73;;;5.30;99.90;;;;;;5055456;28;20053;-66
2022/01/15 10:35:27;;;;;;;19.00;12.40;;;5.30;99.90;;;;;;5058306;28;20041;-66
2022/01/15 10:38:04;;;;;;;18.92;12.10;;;5.30;99.90;;;;;;5060724;28;20094;-66
2022/01/15 10:40:53;;;;;;;18.38;11.95;;;5.30;99.90;;;;;;5053699;28;20052;-66
2022/01/15 10:43:19;;;;;;;17.73;11.35;;;5.20;99.90;;;;;;5054833;28;20488;-66
2022/01/15 10:45:50;;;;;;;17.27;11.75;;;5.20;99.90;;;;;;5055459;28;20445;-66
2022/01/15 10:48:33;;;;;;;17.05;11.18;;;5.20;99.90;;;;;;5057049;28;20103;-66
2022/01/15 10:51:02;;;;;;;15.63;10.82;;;5.20;99.90;;;;;;5059509;28;20144;-66
2022/01/15 10:53:39;;;;;;;15.80;11.18;;;5.20;99.90;;;;;;5057238;28;20040;-66
2022/01/15 10:56:08;;;;;;;15.50;11.88;;;5.20;99.90;;;;;;5058182;28;20044;-66
2022/01/15 10:58:36;;;;;;;18.05;12.38;;;5.20;99.90;;;;;;5057831;28;20047;-66
2022/01/15 11:01:03;;;;;;;17.58;12.07;;;5.30;99.90;;;;;;5061626;28;20041;-66
2022/01/15 11:03:44;;;;;;;20.15;13.00;;;5.20;99.90;;;;;;5064411;28;20366;-66
2022/01/15 11:06:10;;;;;;;17.98;12.45;;;5.20;99.90;;;;;;5057115;28;20505;-66
2022/01/15 11:08:38;;;;;;;17.90;13.60;;;5.20;99.90;;;;;;5054185;28;20193;-66
2022/01/15 11:11:09;;;;;;;17.65;13.25;;;5.20;99.90;;;;;;5049980;28;20466;-66
2022/01/15 11:13:39;;;;;;;16.42;11.80;;;5.20;99.90;;;;;;5063913;28;20049;-66
2022/01/15 11:16:16;;;;;;;18.80;12.63;;;5.20;99.90;;;;;;5063137;28;20139;-66
2022/01/15 11:18:51;;;;;;;18.30;12.68;;;5.20;99.90;;;;;;5058088;28;20507;-66
2022/01/15 11:21:19;;;;;;;21.45;14.07;;;5.20;99.90;;;;;;5034009;28;20087;-65
2022/01/15 11:23:45;;;;;;;21.38;14.65;;;5.20;99.90;;;;;;5045494;28;20390;-65
2022/01/15 11:26:13;;;;;;;24.80;14.90;;;5.20;99.90;;;;;;5059259;28;20568;-65
2022/01/15 11:28:41;;;;;;;24.50;16.67;;;5.20;99.90;;;;;;5061684;28;20105;-65
2022/01/15 11:31:11;;;;;;;21.50;15.30;;;5.20;99.90;;;;;;5058091;28;20142;-65
2022/01/15 11:33:46;;;;;;;23.35;15.07;;;5.20;99.90;;;;;;5056784;28;20049;-65
2022/01/15 11:36:27;;;;;;;22.42;15.80;;;5.20;99.90;;;;;;5060435;28;20048;-66
2022/01/15 11:38:53;;;;;;;23.23;14.60;;;5.20;99.90;;;;;;5056369;28;20396;-66
2022/01/15 11:41:28;;;;;;;17.70;13.32;;;5.20;99.90;;;;;;5064357;28;20051;-66
2022/01/15 11:43:55;;;;;;;21.88;15.07;;;5.20;99.90;;;;;;5058687;28;20036;-66
2022/01/15 11:46:30;;;;;;;22.80;14.80;;;5.30;99.90;;;;;;5051184;28;20041;-66
2022/01/15 11:49:24;;;;;;;21.40;15.50;;;5.30;99.90;;;;;;5058524;28;20603;-66
2022/01/15 11:51:51;;;;;;;22.33;16.33;;;5.30;99.90;;;;;;5060236;28;20090;-66
2022/01/15 11:54:17;;;;;;;25.58;17.55;;;5.30;99.90;;;;;;5059871;28;20059;-66
2022/01/15 11:56:43;;;;;;;28.67;18.63;;;5.30;99.90;;;;;;5050152;28;20450;-66
2022/01/15 11:59:30;;;;;;;25.05;17.13;;;5.30;99.90;;;;;;5060238;28;20059;-66
2022/01/15 12:02:02;;;;;;;20.73;14.85;;;5.30;99.90;;;;;;5056300;28;20039;-65
2022/01/15 12:04:35;;;;;;;20.08;15.15;;;5.30;99.90;;;;;;5060460;28;20053;-66
2022/01/15 12:07:10;;;;;;;21.70;14.73;;;5.30;99.90;;;;;;5065017;28;20040;-66
2022/01/15 12:09:40;;;;;;;21.70;15.27;;;5.20;99.90;;;;;;5059484;28;20553;-66
2022/01/15 12:12:22;;;;;;;22.30;15.70;;;5.20;99.90;;;;;;5054573;28;20063;-66
2022/01/15 12:14:51;;;;;;;20.75;14.32;;;5.20;99.90;;;;;;5057809;28;20052;-66
2022/01/15 12:17:25;;;;;;;21.48;15.07;;;5.20;99.90;;;;;;5054138;28;20175;-66
2022/01/15 12:19:52;;;;;;;25.25;15.70;;;5.30;99.90;;;;;;5061286;28;20044;-66
2022/01/15 12:22:39;;;;;;;20.30;14.52;;;5.20;99.90;;;;;;5056607;28;20043;-66
2022/01/15 12:25:17;;;;;;;21.88;15.70;;;5.30;99.90;;;;;;5063337;28;20040;-66
2022/01/15 12:28:03;;;;;;;22.00;15.52;;;5.20;99.90;;;;;;5057736;28;20040;-66
2022/01/15 12:30:50;;;;;;;24.30;15.10;;;5.20;99.90;;;;;;5059785;28;20051;-66
2022/01/15 12:33:18;;;;;;;24.75;15.38;;;5.20;99.90;;;;;;5054753;28;20497;-66
2022/01/15 12:35:50;;;;;;;23.15;15.82;;;5.10;99.90;;;;;;5059866;28;20501;-66
2022/01/15 12:38:26;;;;;;;24.05;16.23;;;5.10;99.90;;;;;;5052671;28;20043;-65
2022/01/15 12:41:07;;;;;;;25.73;17.35;;;5.10;99.90;;;;;;5058422;28;20041;-65
2022/01/15 12:43:36;;;;;;;25.95;16.90;;;5.10;99.90;;;;;;5060443;28;20097;-65
2022/01/15 12:46:12;;;;;;;24.20;16.05;;;5.10;99.90;;;;;;5057845;28;20580;-65
2022/01/15 12:48:40;;;;;;;25.77;17.27;;;5.00;99.90;;;;;;5055125;28;20093;-65
2022/01/15 12:51:09;;;;;;;28.25;17.52;;;5.00;99.90;;;;;;5059035;28;20051;-65
2022/01/15 12:53:38;;;;;;;28.98;18.63;;;5.00;99.90;;;;;;5067252;28;20036;-65
2022/01/15 12:56:09;;;;;;;28.60;18.50;;;5.00;99.90;;;;;;5064176;28;20032;-65
2022/01/15 12:58:35;;;;;;;32.13;19.10;;;5.00;99.90;;;;;;5063032;28;20070;-65
2022/01/15 13:01:02;;;;;;;26.63;18.02;;;5.00;99.90;;;;;;5063403;28;20044;-66
2022/01/15 13:03:30;;;;;;;24.35;16.40;;;5.10;99.90;;;;;;5059137;28;20147;-66
2022/01/15 13:05:58;;;;;;;27.42;18.27;;;5.10;99.90;;;;;;5061921;28;20052;-66